cloudbaseCUmx.php :- Version MX_2.2.4 - 22-April-2022
    copyright © Silver Acorn Weather 
    PHP Version 8.1.9


TIME and DATE
    Time Zone :- Europe/London (GMT+1 hours)
    Daylight saving ? :- Yes
    Date/Time :- Sun, 25 Sep 2022 22:47:44 (Night)
    Last updated :- 22:47 Sunday, September 25, 2022

INPUT ITEM: RAW DATA -> DERIVED
    Current temp :- 13.3 °C
    Dewpoint :- 11.8 °C
    Rain Fall :- 0.2 mm
    Barometer :- 1004 hPa
    Humidity :- 91 %
    Wind Speed :- 4 mph
    Wind Dir :- 290 degrees
    Cloud Altitude :- 340.90909090909 ft (AGL)
    Latitude :- 54.633889 N = Northern Hemisphere
    Season :- Autumn
    Moon Age :- 30 days
    Moon Percent :- 0
    Day or Night ? :- Night
    Tag file time Interval :- 5 Minutes

CUMULUS CONDITIONS
    Cumulus conditions not in use
    Zambretti # :- 24

METAR CONDITONS - Metar Times UTC, Update Station times based on timezone setting
    $pathToMetFile :- ./cache/
    Metar - Rawdata :- 2022/09/25 21:20 EGAC 252120Z AUTO 24012G24KT 220V280 9000 -RADZ SCT009 BKN015 OVC020 13/12 Q1005 RERA
    Metar - Trimmed :- 252120Z AUTO 24012G24KT 220V280 9000 -RADZ SCT009 BKN015 OVC020 13/12 Q1005 RERA
    Metar - Decoded :- Is Raining; Scattered clouds, Mostly cloudy, Overcast
    Now :- 1664142463 seconds
    Metar report timestamp :- 1664140800 seconds
    Age of File :- 27.72 minutes
    When to update Metar :- 1663676940 seconds   (Metar report timestamp plus 39 mins refresh time)
    Next Download in :- -7758.72 Minutes (if  '-' then refresh page, if still '-' then Metar update overdue!)
    Metar file :- New File downloaded
     AUTO Metar station updates usually every 30 minutes. MANUAL Metar station updates usually Hourly.

OUTPUT DATA

    Background image file name :- ./images/cb/cb-bg-00autn.png
    $showAGL / ASL :- true
    Cloud Temp :- 11 °C
    $useWXrain :- true
    $tag interval :- 5
    Last rained :- 0.02 days ago
    Last rained Y-M-D h:m :- 2022-09-25 22:15
    No rain in last 5 minutes :- Not raining
    Moon Image (cbmoon.png) created @ :- 22:47:44

SETTINGS
    $tagfile :- ./cldbaseCUtags.php
    $time last update :- 22:47 on 25 September 2022
    $ICAO :- EGAC
    $pathToMetFile :- ./cache/
    $tz :- Europe/London
    $pathToImages :- ./images/cb/  ( background, cloud, windsock and scale images )
    $srcmoonimgdir :- ./images/moon/  ( source of moon images )
    $dstmoonimgdir :- ./images/moon/  ( cbmoon.png )
    $switchSeasons :- true
    $showCldSource :- true
    $showCloudTemp :- true
    $showCaption :- true
    $showMoon :- true
    $showScale :- true
    $showWinsock :- false
    $showWindDir :- false
    $showWindSpd :- false
    $showTemp :- false
    $showHumidity :- false
    $showBaro :- false
    $alwaysShowCloud :- false
    $useCUHeight :- false
    $getMetar :- true
    $metarRefresh :- true
    $useMetarAtNight :- true
    $onlyUseMetar :- true
    $reportMistAt :- 25 ft
    $reportFogAt :- 10 ft
    $stationAltitude :- 49 m AGL